Time;durP1;ratioP1;P1;durP2;ratioP2;P2;SDS_P1;SDS_P2;PMS_P1;PMS_P2;Temp;Humidity;BMP_temperature;BMP_pressure;BME280_temperature;BME280_humidity;BME280_pressure;Samples;Min_cycle;Max_cycle;Signal;HPM_P1;HPM_P2
2022/11/10 00:00:52;;;;;;;34.78;27.70;;;;;;;8.04;70.23;95571.22;5135155;28;20211;-72
2022/11/10 00:03:22;;;;;;;32.67;27.60;;;;;;;8.07;69.96;95576.06;5138479;27;20262;-72
2022/11/10 00:05:50;;;;;;;34.78;30.55;;;;;;;8.07;69.77;95578.03;5138814;27;20199;-72
2022/11/10 00:08:18;;;;;;;33.40;28.67;;;;;;;8.04;69.72;95573.97;5138709;27;20207;-72
2022/11/10 00:11:00;;;;;;;33.40;27.80;;;;;;;8.01;69.97;95585.59;5138554;27;20191;-72
2022/11/10 00:13:31;;;;;;;33.15;26.75;;;;;;;8.03;70.10;95579.81;5138252;27;20590;-72
2022/11/10 00:18:52;;;;;;;35.17;30.55;;;;;;;8.06;69.93;95570.88;5137834;27;20201;-72
2022/11/10 00:21:21;;;;;;;41.70;36.17;;;;;;;8.00;69.69;95574.97;5138802;27;20191;-72
2022/11/10 00:23:49;;;;;;;51.20;45.67;;;;;;;7.91;69.17;95569.44;5138910;27;20555;-72
2022/11/10 00:26:20;;;;;;;34.45;30.70;;;;;;;7.84;69.15;95571.88;5138204;27;20195;-72
2022/11/10 00:28:48;;;;;;;34.10;30.40;;;;;;;7.78;69.28;95576.72;5138522;27;20205;-72
2022/11/10 00:31:17;;;;;;;36.17;31.80;;;;;;;7.79;69.60;95569.28;5138321;27;20218;-72
2022/11/10 00:33:45;;;;;;;42.40;37.92;;;;;;;7.72;69.27;95567.03;5138377;27;20240;-72
2022/11/10 00:36:13;;;;;;;40.45;36.15;;;;;;;7.67;69.38;95564.47;5137881;27;20557;-72
2022/11/10 00:38:41;;;;;;;39.42;34.70;;;;;;;7.56;69.96;95566.69;5138130;27;20206;-72
2022/11/10 00:41:09;;;;;;;32.80;28.77;;;;;;;7.60;70.31;95566.88;5138940;27;20231;-72
2022/11/10 00:43:38;;;;;;;31.42;27.75;;;;;;;7.66;69.95;95565.56;5138733;27;20180;-72
2022/11/10 00:46:07;;;;;;;32.53;28.33;;;;;;;7.72;69.83;95558.78;5138386;27;20603;-72
2022/11/10 00:48:43;;;;;;;33.25;28.55;;;;;;;7.72;69.72;95551.34;5138483;27;20248;-72
2022/11/10 00:51:14;;;;;;;33.40;29.20;;;;;;;7.64;69.54;95556.84;5137849;27;20240;-72
2022/11/10 00:53:42;;;;;;;37.83;33.88;;;;;;;7.65;69.82;95558.47;5137682;27;20203;-72
2022/11/10 00:56:13;;;;;;;42.20;37.88;;;;;;;7.62;69.47;95546.19;5137470;27;20541;-72
2022/11/10 00:58:42;;;;;;;41.00;36.50;;;;;;;7.57;69.29;95551.84;5137096;27;20243;-72
2022/11/10 01:01:12;;;;;;;35.85;31.38;;;;;;;7.56;70.09;95550.22;5137724;27;20191;-71
2022/11/10 01:03:41;;;;;;;37.78;32.15;;;;;;;7.57;69.85;95549.09;5137680;27;20531;-72
2022/11/10 01:06:14;;;;;;;36.88;32.88;;;;;;;7.56;69.61;95546.69;5137298;27;20195;-72
2022/11/10 01:08:42;;;;;;;38.63;33.20;;;;;;;7.55;69.77;95543.09;5137151;27;20202;-71
2022/11/10 01:11:10;;;;;;;37.15;33.13;;;;;;;7.53;69.57;95548.13;5137062;27;20211;-72
2022/11/10 01:13:40;;;;;;;32.97;29.25;;;;;;;7.51;70.04;95550.38;5136746;27;20211;-72
2022/11/10 01:16:10;;;;;;;34.40;29.60;;;;;;;7.51;70.05;95541.34;5137530;27;20195;-72
2022/11/10 01:18:39;;;;;;;32.92;29.35;;;;;;;7.55;70.18;95550.53;5136674;27;20599;-72
2022/11/10 01:21:09;;;;;;;38.20;34.00;;;;;;;7.55;70.00;95551.34;5137606;27;20195;-73
2022/11/10 01:23:36;;;;;;;37.35;31.23;;;;;;;7.56;70.04;95547.50;5136697;27;20203;-72
2022/11/10 01:26:05;;;;;;;35.63;29.90;;;;;;;7.55;69.90;95534.88;5137012;27;20208;-73
2022/11/10 01:28:32;;;;;;;39.25;32.28;;;;;;;7.51;69.37;95536.66;5136962;27;20203;-72
2022/11/10 01:31:00;;;;;;;38.47;33.17;;;;;;;7.45;69.48;95540.69;5137742;27;20183;-72
2022/11/10 01:33:31;;;;;;;38.55;32.78;;;;;;;7.42;69.60;95539.41;5137690;27;20714;-72
2022/11/10 01:36:00;;;;;;;36.13;30.05;;;;;;;7.42;69.58;95539.41;5137333;27;20179;-72
2022/11/10 01:38:32;;;;;;;43.58;37.42;;;;;;;7.42;69.79;95533.91;5136825;27;20194;-73
2022/11/10 01:41:02;;;;;;;38.85;33.67;;;;;;;7.41;69.62;95537.78;5137172;27;20245;-72
2022/11/10 01:43:30;;;;;;;32.80;28.65;;;;;;;7.39;69.65;95545.53;5137168;27;20724;-72
2022/11/10 01:46:00;;;;;;;36.75;30.10;;;;;;;7.41;69.75;95535.03;5136648;27;20199;-72
2022/11/10 01:48:33;;;;;;;43.08;34.75;;;;;;;7.43;69.69;95537.47;5136051;27;20203;-72
2022/11/10 01:51:06;;;;;;;68.88;55.28;;;;;;;7.40;69.58;95541.66;5137269;27;20187;-73
2022/11/10 01:53:40;;;;;;;75.18;67.35;;;;;;;7.39;69.65;95540.03;5137220;27;20256;-73
2022/11/10 01:56:09;;;;;;;40.78;34.38;;;;;;;7.39;69.02;95536.50;5136265;27;20201;-72
2022/11/10 01:58:39;;;;;;;33.90;29.02;;;;;;;7.28;69.11;95540.66;5136251;27;20191;-72
2022/11/10 02:01:07;;;;;;;37.25;29.73;;;;;;;7.24;69.07;95541.31;5136172;27;20252;-72
2022/11/10 02:03:40;;;;;;;33.58;28.60;;;;;;;7.18;69.42;95537.09;5136429;27;20247;-72
2022/11/10 02:06:10;;;;;;;35.08;30.30;;;;;;;7.13;69.40;95534.50;5136523;27;20191;-72
2022/11/10 02:08:41;;;;;;;40.30;30.25;;;;;;;7.09;69.65;95543.69;5136608;27;20634;-72
2022/11/10 02:11:09;;;;;;;38.33;30.13;;;;;;;7.07;69.69;95549.50;5136016;27;20225;-72
2022/11/10 02:13:37;;;;;;;31.95;28.02;;;;;;;7.02;70.11;95549.66;5136793;27;20199;-72
2022/11/10 02:16:07;;;;;;;33.63;27.70;;;;;;;6.97;70.18;95550.63;5136860;27;20190;-73
2022/11/10 02:18:36;;;;;;;29.95;26.75;;;;;;;7.01;70.33;95550.78;5135429;27;20206;-72
2022/11/10 02:21:11;;;;;;;32.85;27.10;;;;;;;7.05;70.31;95560.00;5136749;27;20187;-72
2022/11/10 02:23:48;;;;;;;31.45;26.42;;;;;;;7.12;70.24;95552.09;5135755;27;20621;-72
2022/11/10 02:26:18;;;;;;;35.50;28.77;;;;;;;7.14;70.27;95554.50;5135937;27;20183;-72
2022/11/10 02:28:46;;;;;;;35.00;28.13;;;;;;;7.14;70.01;95560.81;5136225;27;20184;-72
2022/11/10 02:31:15;;;;;;;33.72;27.48;;;;;;;7.13;69.64;95556.47;5135733;27;20224;-72
2022/11/10 02:33:41;;;;;;;31.17;26.13;;;;;;;7.17;70.22;95562.13;5136570;27;20226;-72
2022/11/10 02:36:11;;;;;;;29.20;26.10;;;;;;;7.21;69.91;95557.59;5135605;27;20191;-72
2022/11/10 02:38:40;;;;;;;32.00;28.50;;;;;;;7.19;69.83;95562.63;5136436;27;20194;-72
2022/11/10 02:41:09;;;;;;;32.60;26.33;;;;;;;7.13;69.86;95567.44;5136615;27;20235;-72
2022/11/10 02:43:37;;;;;;;31.13;26.95;;;;;;;7.14;69.71;95565.50;5136420;27;20211;-72
2022/11/10 02:46:06;;;;;;;31.48;27.00;;;;;;;7.12;69.87;95562.28;5136102;27;20210;-72
2022/11/10 02:48:34;;;;;;;32.08;27.02;;;;;;;7.13;69.98;95558.41;5133288;27;20629;-72
2022/11/10 02:51:02;;;;;;;32.40;26.83;;;;;;;7.08;69.41;95564.00;5136362;27;20183;-72
2022/11/10 02:53:32;;;;;;;30.88;26.90;;;;;;;7.05;69.65;95570.97;5136518;27;20207;-72
2022/11/10 02:56:00;;;;;;;32.67;26.35;;;;;;;6.96;69.41;95568.16;5136638;27;20206;-72
2022/11/10 02:58:28;;;;;;;31.38;27.05;;;;;;;6.92;69.45;95563.66;5136339;27;20179;-72
2022/11/10 03:00:56;;;;;;;31.98;28.05;;;;;;;6.91;69.78;95570.28;5135307;28;20198;-72
2022/11/10 03:03:24;;;;;;;28.85;25.67;;;;;;;6.92;69.61;95569.94;5135000;28;20200;-72
2022/11/10 03:05:53;;;;;;;28.63;25.10;;;;;;;6.92;69.36;95571.88;5135144;28;20209;-72
2022/11/10 03:08:21;;;;;;;30.33;26.05;;;;;;;6.89;69.82;95572.50;5136122;27;20229;-72
2022/11/10 03:10:54;;;;;;;29.27;26.15;;;;;;;6.87;69.27;95572.03;5135096;28;20201;-72
2022/11/10 03:13:25;;;;;;;31.02;27.10;;;;;;;6.79;69.78;95578.25;5135610;28;20267;-72
2022/11/10 03:15:57;;;;;;;32.10;27.00;;;;;;;6.71;69.83;95575.16;5135050;28;20285;-72
2022/11/10 03:18:25;;;;;;;32.83;27.52;;;;;;;6.69;70.36;95568.41;5135208;28;20293;-72
2022/11/10 03:20:54;;;;;;;32.42;26.20;;;;;;;6.65;70.64;95570.97;5135070;28;20195;-72
2022/11/10 03:23:22;;;;;;;30.40;26.00;;;;;;;6.73;70.71;95575.69;5134891;28;20191;-72
2022/11/10 03:25:52;;;;;;;31.45;27.23;;;;;;;6.80;70.94;95577.97;5136086;27;20203;-72
2022/11/10 03:28:20;;;;;;;31.23;26.48;;;;;;;6.85;70.87;95577.00;5135940;28;20187;-72
2022/11/10 03:30:47;;;;;;;30.27;26.08;;;;;;;6.84;70.41;95573.47;5135772;27;20191;-72
2022/11/10 03:33:15;;;;;;;31.60;26.77;;;;;;;6.82;70.16;95577.63;5136115;27;20206;-72
2022/11/10 03:35:43;;;;;;;31.63;25.63;;;;;;;6.73;70.11;95578.41;5136068;27;20260;-72
2022/11/10 03:38:12;;;;;;;32.15;25.83;;;;;;;6.75;70.18;95578.94;5139760;27;20272;-72
2022/11/10 03:40:38;;;;;;;34.05;28.15;;;;;;;6.71;69.79;95577.09;5138734;27;20253;-72
2022/11/10 03:43:08;;;;;;;34.17;28.65;;;;;;;6.69;69.88;95574.69;5140103;27;20194;-72
2022/11/10 03:45:36;;;;;;;36.50;29.33;;;;;;;6.71;70.34;95574.38;5139796;27;20195;-72
2022/11/10 03:48:06;;;;;;;37.15;30.25;;;;;;;6.70;69.84;95576.31;5139108;27;20247;-72
2022/11/10 03:50:35;;;;;;;33.35;26.98;;;;;;;6.64;69.84;95582.22;5139722;27;20184;-72
2022/11/10 03:53:03;;;;;;;33.03;27.80;;;;;;;6.65;70.35;95581.13;5139335;27;20275;-72
2022/11/10 03:55:29;;;;;;;34.17;27.50;;;;;;;6.67;70.43;95581.59;5138525;27;20218;-72
2022/11/10 03:58:05;;;;;;;34.70;29.35;;;;;;;6.68;70.34;95584.06;5138540;27;20633;-72
2022/11/10 04:00:37;;;;;;;37.67;28.48;;;;;;;6.63;69.83;95595.13;5139491;27;20183;-72
2022/11/10 04:03:05;;;;;;;31.65;27.65;;;;;;;6.54;69.17;95598.97;5138720;27;20195;-72
2022/11/10 04:11:06;;;;;;;33.35;26.58;;;;;;;6.40;70.57;95599.84;5139323;27;20182;-72
2022/11/10 04:16:23;;;;;;;33.08;27.45;;;;;;;6.50;70.73;95594.13;5116404;27;20299;-72
2022/11/10 04:18:51;;;;;;;33.58;28.08;;;;;;;6.53;70.60;95591.84;5138841;27;20929;-73
2022/11/10 04:21:19;;;;;;;32.33;27.35;;;;;;;6.57;70.26;95590.09;5138629;27;20199;-73
2022/11/10 04:23:47;;;;;;;33.38;28.50;;;;;;;6.53;70.31;95592.66;5139022;27;20194;-73
2022/11/10 04:26:28;;;;;;;33.00;28.17;;;;;;;6.50;70.47;95605.06;5138858;27;20194;-72
2022/11/10 04:28:57;;;;;;;31.48;27.60;;;;;;;6.51;70.64;95603.94;5138822;27;20294;-72
2022/11/10 04:31:29;;;;;;;35.90;28.85;;;;;;;6.55;70.64;95595.09;5139140;27;20191;-72
2022/11/10 04:33:56;;;;;;;31.30;27.30;;;;;;;6.54;70.26;95599.78;5138589;27;20223;-72
2022/11/10 04:36:24;;;;;;;32.72;27.35;;;;;;;6.51;70.31;95608.63;5138674;27;20218;-72
2022/11/10 04:38:54;;;;;;;33.80;28.52;;;;;;;6.48;69.68;95596.34;5137536;27;20199;-73
2022/11/10 04:41:24;;;;;;;33.72;29.40;;;;;;;6.42;69.92;95602.28;5137132;27;20241;-73
2022/11/10 04:43:52;;;;;;;37.65;30.20;;;;;;;6.36;69.51;95603.53;5138457;27;20565;-73
2022/11/10 04:46:23;;;;;;;36.10;29.35;;;;;;;6.36;69.98;95600.81;5138049;27;20199;-72
2022/11/10 04:48:54;;;;;;;33.22;27.35;;;;;;;6.39;70.21;95605.63;5136915;27;20183;-72
2022/11/10 04:51:26;;;;;;;32.22;28.65;;;;;;;6.37;70.05;95605.94;5137860;27;20199;-73
2022/11/10 04:53:54;;;;;;;36.55;29.13;;;;;;;6.32;69.86;95608.84;5137878;27;20246;-73
2022/11/10 04:56:23;;;;;;;34.60;29.58;;;;;;;6.24;70.06;95604.09;5138685;27;20203;-72
2022/11/10 04:58:53;;;;;;;33.58;29.05;;;;;;;6.25;70.29;95611.22;5138208;27;20187;-72
2022/11/10 05:01:22;;;;;;;32.60;28.17;;;;;;;6.28;70.63;95613.28;5137511;27;20199;-72
2022/11/10 05:03:53;;;;;;;34.85;31.25;;;;;;;6.27;70.63;95614.44;5137594;27;20188;-72
2022/11/10 05:06:21;;;;;;;35.08;30.40;;;;;;;6.27;70.76;95607.00;5138234;27;20187;-72
2022/11/10 05:08:52;;;;;;;37.13;32.17;;;;;;;6.26;70.87;95621.84;5138131;27;20198;-72
2022/11/10 05:11:20;;;;;;;39.75;32.58;;;;;;;6.27;70.40;95617.97;5138333;27;20183;-71
2022/11/10 05:13:48;;;;;;;35.80;31.90;;;;;;;6.27;70.46;95617.16;5137709;27;20516;-72
2022/11/10 05:16:16;;;;;;;34.22;30.50;;;;;;;6.26;70.65;95615.56;5137298;27;20218;-70
2022/11/10 05:18:43;;;;;;;38.00;30.98;;;;;;;6.26;70.85;95621.03;5136857;27;20203;-70
2022/11/10 05:21:15;;;;;;;34.22;29.52;;;;;;;6.32;70.96;95618.97;5136988;27;20209;-70
2022/11/10 05:23:45;;;;;;;34.75;30.90;;;;;;;6.32;70.37;95619.78;5137055;27;20195;-71
2022/11/10 05:26:14;;;;;;;37.53;31.10;;;;;;;6.30;70.76;95626.69;5137861;27;20187;-70
2022/11/10 05:28:44;;;;;;;37.42;33.40;;;;;;;6.24;70.25;95624.06;5136815;27;20199;-70
2022/11/10 05:31:12;;;;;;;35.70;31.80;;;;;;;6.19;70.69;95623.41;5137689;27;20207;-70
2022/11/10 05:33:45;;;;;;;37.40;31.50;;;;;;;6.23;70.67;95622.47;5136485;27;20202;-70
2022/11/10 05:36:14;;;;;;;36.05;31.35;;;;;;;6.23;70.79;95618.91;5136730;27;20190;-70
2022/11/10 05:38:44;;;;;;;36.58;31.48;;;;;;;6.23;70.99;95627.94;5136510;27;20260;-70
2022/11/10 05:41:12;;;;;;;45.65;32.53;;;;;;;6.20;70.61;95623.06;5136417;27;20283;-70
2022/11/10 05:43:40;;;;;;;41.03;32.97;;;;;;;6.17;70.41;95622.88;5136557;27;20195;-71
2022/11/10 05:46:11;;;;;;;50.83;44.38;;;;;;;6.15;70.76;95625.16;5136823;27;20195;-71
2022/11/10 05:48:38;;;;;;;51.40;42.10;;;;;;;6.14;70.64;95629.81;5136304;27;20206;-71
2022/11/10 05:51:05;;;;;;;51.00;45.47;;;;;;;6.16;71.14;95633.03;5136841;27;20198;-71
2022/11/10 05:53:35;;;;;;;41.60;35.40;;;;;;;6.22;71.34;95642.75;5137244;27;20191;-70
2022/11/10 05:56:03;;;;;;;39.42;32.25;;;;;;;6.25;71.13;95638.59;5136330;27;20211;-70
2022/11/10 05:58:30;;;;;;;40.10;31.95;;;;;;;6.29;70.99;95645.06;5137125;27;20195;-70
2022/11/10 06:00:57;;;;;;;41.95;32.40;;;;;;;6.26;71.14;95645.69;5135927;27;20221;-70
2022/11/10 06:03:31;;;;;;;37.83;32.38;;;;;;;6.27;71.60;95650.03;5136174;27;20210;-70
2022/11/10 06:05:59;;;;;;;42.92;34.10;;;;;;;6.31;71.45;95650.22;5137129;27;20175;-70
2022/11/10 06:08:27;;;;;;;38.35;31.88;;;;;;;6.34;72.01;95658.63;5135755;27;20612;-70
2022/11/10 06:10:58;;;;;;;34.28;29.73;;;;;;;6.47;72.22;95660.50;5135558;27;20199;-70
2022/11/10 06:13:24;;;;;;;40.42;29.77;;;;;;;6.53;72.17;95660.38;5136545;27;20186;-70
2022/11/10 06:15:53;;;;;;;37.33;32.63;;;;;;;6.58;71.97;95666.53;5135579;27;20442;-70
2022/11/10 06:18:24;;;;;;;38.22;30.15;;;;;;;6.63;72.28;95668.34;5136151;27;20206;-71
2022/11/10 06:20:52;;;;;;;37.25;29.58;;;;;;;6.68;71.86;95670.94;5135867;27;20281;-71
2022/11/10 06:23:21;;;;;;;42.05;34.33;;;;;;;6.74;72.21;95683.41;5136731;27;20191;-71
2022/11/10 06:25:49;;;;;;;39.60;32.95;;;;;;;6.78;72.17;95665.19;5136495;27;20207;-71
2022/11/10 06:28:22;;;;;;;39.25;32.22;;;;;;;6.83;72.56;95686.22;5136643;27;20186;-71
2022/11/10 06:30:50;;;;;;;39.50;32.10;;;;;;;6.89;72.34;95680.25;5135186;27;20228;-71
2022/11/10 06:33:18;;;;;;;35.90;30.52;;;;;;;6.95;72.57;95686.44;5136783;27;20187;-71
2022/11/10 06:35:48;;;;;;;36.72;29.85;;;;;;;7.03;72.32;95693.06;5136409;27;20654;-71
2022/11/10 06:38:19;;;;;;;35.22;30.92;;;;;;;7.12;72.52;95696.69;5136623;27;20190;-71
2022/11/10 06:40:47;;;;;;;37.15;30.92;;;;;;;7.21;72.47;95701.06;5136165;27;20235;-71
2022/11/10 06:43:16;;;;;;;37.30;30.42;;;;;;;7.27;72.44;95709.19;5136378;27;20248;-71
2022/11/10 06:45:46;;;;;;;34.83;30.25;;;;;;;7.36;72.32;95699.03;5136256;27;20171;-71
2022/11/10 06:48:17;;;;;;;36.05;31.40;;;;;;;7.45;72.03;95702.63;5135439;27;20218;-71
2022/11/10 06:50:45;;;;;;;38.00;29.25;;;;;;;7.53;72.21;95701.84;5136370;27;20259;-71
2022/11/10 06:53:12;;;;;;;30.77;27.30;;;;;;;7.62;72.25;95699.91;5135828;27;20203;-71
2022/11/10 06:55:39;;;;;;;29.67;25.75;;;;;;;7.76;72.64;95716.28;5135244;27;20222;-71
2022/11/10 06:58:07;;;;;;;28.70;24.08;;;;;;;7.86;72.76;95706.94;5135588;27;20199;-71
2022/11/10 07:00:34;;;;;;;27.55;22.50;;;;;;;7.93;72.20;95710.03;5135029;28;20207;-71
2022/11/10 07:03:08;;;;;;;25.48;22.08;;;;;;;8.03;72.25;95701.47;5135223;28;20198;-71
2022/11/10 07:05:36;;;;;;;28.92;22.98;;;;;;;8.10;72.16;95706.50;5135155;28;20202;-71
2022/11/10 07:08:05;;;;;;;26.90;21.98;;;;;;;8.18;72.12;95697.47;5135417;28;20191;-71
2022/11/10 07:10:35;;;;;;;27.58;22.48;;;;;;;8.25;71.87;95700.53;5135441;27;20198;-71
2022/11/10 07:13:04;;;;;;;27.90;23.35;;;;;;;8.33;71.91;95701.66;5139288;27;20262;-71
2022/11/10 07:15:33;;;;;;;27.13;23.45;;;;;;;8.41;72.07;95709.13;5139589;27;20211;-71
2022/11/10 07:18:01;;;;;;;27.20;22.55;;;;;;;8.48;71.69;95708.66;5139837;27;20191;-71
2022/11/10 07:20:32;;;;;;;25.73;22.88;;;;;;;8.55;71.65;95719.97;5139409;27;20236;-71
2022/11/10 07:22:59;;;;;;;25.00;22.30;;;;;;;8.61;71.38;95718.69;5139411;27;20198;-71
2022/11/10 07:25:29;;;;;;;24.17;21.38;;;;;;;8.64;70.87;95716.09;5139965;27;20183;-71
2022/11/10 07:27:58;;;;;;;27.23;24.35;;;;;;;8.73;71.06;95716.06;5139209;27;20195;-70
2022/11/10 07:30:27;;;;;;;30.65;24.83;;;;;;;8.83;71.61;95712.19;5138770;27;20205;-71
2022/11/10 07:33:00;;;;;;;27.10;24.23;;;;;;;8.94;71.12;95721.72;5139275;27;20209;-71
2022/11/10 07:35:31;;;;;;;29.00;25.00;;;;;;;9.01;71.08;95722.03;5138706;27;20650;-71
2022/11/10 07:38:02;;;;;;;26.48;23.40;;;;;;;9.12;71.01;95723.28;5140173;27;20191;-71
2022/11/10 07:40:30;;;;;;;27.48;22.77;;;;;;;9.25;71.21;95721.47;5138444;27;20238;-70
2022/11/10 07:42:58;;;;;;;23.50;20.92;;;;;;;9.35;72.27;95710.09;5139184;27;20206;-70
2022/11/10 07:45:26;;;;;;;24.15;21.55;;;;;;;9.46;71.98;95716.03;5139190;27;20210;-71
2022/11/10 07:47:58;;;;;;;26.77;21.23;;;;;;;9.54;72.68;95717.16;5138840;27;20203;-71
2022/11/10 07:50:29;;;;;;;24.90;21.30;;;;;;;9.57;73.49;95711.78;5138933;27;20195;-71
2022/11/10 07:53:05;;;;;;;24.60;21.58;;;;;;;9.69;72.99;95704.75;5138523;27;20630;-70
2022/11/10 07:55:32;;;;;;;25.63;22.02;;;;;;;9.76;73.27;95716.88;5138342;27;20221;-70
2022/11/10 07:58:01;;;;;;;25.48;22.73;;;;;;;9.77;73.70;95712.19;5138933;27;20210;-71
2022/11/10 08:00:30;;;;;;;26.88;22.52;;;;;;;9.86;74.00;95718.47;5139660;27;20194;-71
2022/11/10 08:03:04;;;;;;;25.52;21.92;;;;;;;9.97;73.62;95713.38;5138148;27;20195;-71
2022/11/10 08:05:35;;;;;;;24.67;22.08;;;;;;;10.02;73.42;95708.50;5137888;27;20202;-71
2022/11/10 08:08:04;;;;;;;23.75;20.05;;;;;;;10.14;73.97;95716.03;5138433;27;20247;-71
2022/11/10 08:10:33;;;;;;;22.17;19.83;;;;;;;10.24;74.26;95701.84;5138902;27;20209;-71
2022/11/10 08:13:02;;;;;;;20.52;18.40;;;;;;;10.28;73.37;95702.84;5138374;27;20272;-71
2022/11/10 08:15:30;;;;;;;22.25;19.92;;;;;;;10.34;73.52;95709.75;5138206;27;20214;-71
2022/11/10 08:18:02;;;;;;;23.67;21.15;;;;;;;10.44;73.35;95711.28;5138781;27;20201;-71
2022/11/10 08:20:31;;;;;;;23.67;21.13;;;;;;;10.48;73.50;95714.19;5139184;27;20183;-71
2022/11/10 08:22:59;;;;;;;25.20;22.50;;;;;;;10.55;73.12;95717.22;5136945;27;20202;-71
2022/11/10 08:25:33;;;;;;;21.95;19.02;;;;;;;10.66;72.70;95712.91;5138374;27;20243;-71
2022/11/10 08:28:04;;;;;;;23.52;21.02;;;;;;;10.71;72.12;95718.22;5138090;27;20194;-70
2022/11/10 08:30:31;;;;;;;24.02;21.52;;;;;;;10.74;72.25;95722.25;5137601;27;20218;-71
2022/11/10 08:33:01;;;;;;;26.52;23.60;;;;;;;10.76;71.94;95714.44;5138001;27;20211;-71
2022/11/10 08:35:31;;;;;;;28.63;23.95;;;;;;;10.74;71.74;95719.47;5137756;27;20214;-71
2022/11/10 08:37:59;;;;;;;27.52;24.63;;;;;;;10.71;71.96;95718.22;5138236;27;20195;-71
2022/11/10 08:40:28;;;;;;;28.10;25.10;;;;;;;10.78;72.29;95717.66;5137833;27;20230;-71
2022/11/10 08:43:00;;;;;;;29.92;26.83;;;;;;;10.93;72.71;95716.22;5138729;27;20209;-71
2022/11/10 08:45:28;;;;;;;28.80;25.70;;;;;;;11.05;71.90;95717.09;5137532;27;20194;-71
2022/11/10 08:48:04;;;;;;;29.08;25.95;;;;;;;11.20;71.97;95720.34;5139040;27;20194;-71
2022/11/10 08:50:30;;;;;;;30.38;25.80;;;;;;;11.37;71.72;95722.13;5137658;27;20521;-71
2022/11/10 08:53:01;;;;;;;29.27;25.90;;;;;;;11.53;71.12;95728.59;5138211;27;20539;-71
2022/11/10 08:55:31;;;;;;;30.10;26.70;;;;;;;11.70;70.58;95722.88;5138579;27;20211;-71
2022/11/10 08:58:03;;;;;;;29.05;25.60;;;;;;;11.74;69.81;95723.78;5138468;27;20179;-71
2022/11/10 09:00:32;;;;;;;28.15;24.40;;;;;;;11.85;69.11;95718.63;5138409;27;20179;-71
2022/11/10 09:03:04;;;;;;;26.17;23.58;;;;;;;11.93;68.90;95719.66;5138702;27;20206;-71
2022/11/10 09:05:32;;;;;;;28.70;24.75;;;;;;;12.00;68.64;95723.47;5137674;27;20195;-71
2022/11/10 09:07:59;;;;;;;29.05;24.90;;;;;;;12.10;68.39;95711.16;5138359;27;20191;-71
2022/11/10 09:10:28;;;;;;;27.83;24.83;;;;;;;12.22;68.67;95716.66;5138189;27;20190;-71
2022/11/10 09:13:00;;;;;;;28.20;25.15;;;;;;;12.33;67.84;95725.28;5137223;27;20229;-71
2022/11/10 09:15:29;;;;;;;27.42;24.50;;;;;;;12.47;67.78;95724.91;5138124;27;20203;-71
2022/11/10 09:17:58;;;;;;;26.85;23.95;;;;;;;12.53;66.08;95723.53;5138207;27;20214;-71
2022/11/10 09:20:26;;;;;;;28.63;25.00;;;;;;;12.61;66.58;95725.34;5137353;27;20198;-71
2022/11/10 09:22:54;;;;;;;27.00;24.17;;;;;;;12.69;66.43;95716.09;5138254;27;20194;-71
2022/11/10 09:25:22;;;;;;;28.05;24.83;;;;;;;12.74;66.12;95721.41;5137022;27;20216;-71
2022/11/10 09:27:51;;;;;;;29.13;25.00;;;;;;;12.83;65.63;95712.94;5137069;27;20187;-71
2022/11/10 09:30:24;;;;;;;28.17;25.02;;;;;;;12.77;65.03;95711.56;5137510;27;20202;-71
2022/11/10 09:32:54;;;;;;;27.27;23.98;;;;;;;12.72;65.30;95697.97;5137648;27;20179;-71
2022/11/10 09:35:22;;;;;;;27.25;23.15;;;;;;;12.74;65.23;95704.78;5137608;27;20222;-70
2022/11/10 09:37:50;;;;;;;26.33;23.58;;;;;;;12.84;64.78;95709.00;5137611;27;20198;-71
2022/11/10 09:40:20;;;;;;;26.48;23.52;;;;;;;12.91;64.87;95705.63;5136337;27;20191;-71
2022/11/10 09:42:49;;;;;;;27.40;23.13;;;;;;;13.01;64.53;95710.69;5137520;27;20199;-71
2022/11/10 09:45:24;;;;;;;29.40;25.33;;;;;;;13.11;64.45;95706.56;5137483;27;20191;-71
2022/11/10 09:47:59;;;;;;;30.80;24.80;;;;;;;13.20;64.67;95701.69;5136500;27;20187;-70
2022/11/10 09:50:37;;;;;;;30.45;25.60;;;;;;;13.33;64.90;95699.72;5136614;27;20195;-70
2022/11/10 09:53:06;;;;;;;30.73;26.80;;;;;;;13.47;64.55;95700.06;5137092;27;20198;-70
2022/11/10 09:55:39;;;;;;;31.65;26.10;;;;;;;13.51;63.89;95695.44;5136934;27;20203;-70
2022/11/10 09:58:09;;;;;;;28.70;25.60;;;;;;;13.59;63.69;95697.22;5137213;27;20629;-70
2022/11/10 10:00:42;;;;;;;28.40;25.33;;;;;;;13.63;63.48;95691.75;5137137;27;20200;-70
2022/11/10 10:03:15;;;;;;;28.95;25.42;;;;;;;13.68;63.65;95695.06;5136149;27;20198;-71
2022/11/10 10:05:52;;;;;;;32.40;26.85;;;;;;;13.79;63.81;95691.75;5136304;27;20186;-71
2022/11/10 10:08:27;;;;;;;33.60;26.80;;;;;;;13.86;63.27;95694.69;5136243;27;20206;-71
2022/11/10 10:11:01;;;;;;;30.92;26.55;;;;;;;13.87;62.54;95690.75;5136964;27;20190;-71
2022/11/10 10:13:50;;;;;;;30.75;26.65;;;;;;;13.90;62.47;95684.50;5137552;27;20595;-71
2022/11/10 10:16:22;;;;;;;28.80;25.25;;;;;;;13.89;62.44;95686.47;5136033;27;20203;-71
2022/11/10 10:18:54;;;;;;;29.05;25.27;;;;;;;13.93;62.18;95692.09;5135844;27;20195;-71
2022/11/10 10:21:37;;;;;;;31.73;25.73;;;;;;;13.95;62.16;95681.47;5136416;27;20203;-71
2022/11/10 10:24:05;;;;;;;30.73;25.92;;;;;;;14.00;62.41;95683.16;5135803;27;20195;-71
2022/11/10 10:26:34;;;;;;;26.88;23.38;;;;;;;14.05;62.29;95685.63;5136062;27;20202;-71
2022/11/10 10:29:10;;;;;;;23.95;21.25;;;;;;;14.15;62.06;95685.09;5135543;27;20209;-71
2022/11/10 10:31:42;;;;;;;31.55;25.13;;;;;;;14.26;61.73;95685.34;5135853;27;20259;-71
2022/11/10 10:34:15;;;;;;;28.13;23.13;;;;;;;14.30;61.60;95683.44;5135601;27;20199;-71
2022/11/10 10:36:45;;;;;;;27.92;23.48;;;;;;;14.33;60.98;95685.50;5135341;27;20226;-71
2022/11/10 10:39:17;;;;;;;26.23;22.60;;;;;;;14.39;60.72;95676.53;5135564;27;20325;-71
2022/11/10 10:41:46;;;;;;;23.42;20.83;;;;;;;14.44;60.70;95684.56;5134453;27;20238;-71
2022/11/10 10:44:14;;;;;;;27.67;22.83;;;;;;;14.45;60.17;95674.25;5135651;27;20202;-71
2022/11/10 10:46:49;;;;;;;24.27;20.77;;;;;;;14.42;60.33;95672.25;5134541;27;20191;-71
2022/11/10 10:49:21;;;;;;;26.58;22.75;;;;;;;14.43;60.17;95665.50;5135450;27;20194;-71
2022/11/10 10:51:51;;;;;;;26.83;22.73;;;;;;;14.39;59.77;95668.22;5135439;27;20563;-71
2022/11/10 10:54:26;;;;;;;26.15;22.38;;;;;;;14.33;60.24;95661.31;5136472;27;20547;-71
2022/11/10 10:57:30;;;;;;;27.77;23.20;;;;;;;14.28;60.40;95658.06;5136223;27;20217;-71
2022/11/10 11:00:20;;;;;;;27.90;23.40;;;;;;;14.23;60.47;95650.78;5135486;27;20214;-71
2022/11/10 11:03:03;;;;;;;28.13;24.13;;;;;;;14.27;60.75;95651.69;5135277;28;20243;-71
2022/11/10 11:05:32;;;;;;;28.15;24.52;;;;;;;14.30;60.54;95653.72;5135944;28;20195;-71
2022/11/10 11:08:01;;;;;;;27.67;24.20;;;;;;;14.35;60.69;95652.66;5135030;28;20205;-71
2022/11/10 11:10:32;;;;;;;28.38;23.75;;;;;;;14.38;60.18;95640.84;5135185;28;20271;-71
2022/11/10 11:13:13;;;;;;;28.52;24.85;;;;;;;14.41;60.29;95640.09;5135207;28;20190;-71
2022/11/10 11:15:41;;;;;;;27.58;23.92;;;;;;;14.44;60.54;95642.94;5135210;28;20203;-70
2022/11/10 11:18:15;;;;;;;30.25;25.15;;;;;;;14.54;60.38;95641.59;5135282;28;20289;-71
2022/11/10 11:20:47;;;;;;;29.63;25.23;;;;;;;14.60;60.12;95639.34;5135295;28;20195;-71
2022/11/10 11:23:27;;;;;;;30.02;26.15;;;;;;;14.61;60.22;95632.63;5135367;28;20192;-71
2022/11/10 11:26:04;;;;;;;31.33;25.52;;;;;;;14.63;59.90;95633.88;5135252;28;20202;-71
2022/11/10 11:28:38;;;;;;;28.35;25.23;;;;;;;14.59;59.16;95635.75;5135165;28;20516;-71
2022/11/10 11:31:13;;;;;;;28.55;24.20;;;;;;;14.54;59.14;95635.25;5135331;28;20194;-71
2022/11/10 11:33:47;;;;;;;27.60;23.77;;;;;;;14.56;59.46;95625.41;5134753;28;20268;-71
2022/11/10 11:36:25;;;;;;;28.85;24.42;;;;;;;14.58;59.28;95625.00;5135150;28;20222;-71
2022/11/10 11:38:57;;;;;;;30.67;24.73;;;;;;;14.60;59.43;95623.50;5134982;28;20187;-71
2022/11/10 11:41:34;;;;;;;30.08;24.80;;;;;;;14.65;59.43;95620.41;5134826;28;20291;-71
2022/11/10 11:44:21;;;;;;;31.65;25.08;;;;;;;14.73;59.35;95626.09;5135851;27;20186;-71
2022/11/10 11:46:55;;;;;;;31.30;27.25;;;;;;;14.79;59.41;95617.13;5134873;28;20260;-71